sensor_id;sensor_type;location;lat;lon;timestamp;pressure;altitude;pressure_sealevel;temperature;humidity
44441;BME280;30146;52.268;20.944;2023-04-05T00:02:26;100951.56;;;0.51;52.93
44441;BME280;30146;52.268;20.944;2023-04-05T00:04:58;100947.38;;;0.51;52.82
44441;BME280;30146;52.268;20.944;2023-04-05T00:07:29;100946.64;;;0.49;52.92
44441;BME280;30146;52.268;20.944;2023-04-05T00:10:02;100943.73;;;0.48;52.74
44441;BME280;30146;52.268;20.944;2023-04-05T00:12:33;100943.12;;;0.45;52.71
44441;BME280;30146;52.268;20.944;2023-04-05T00:15:05;100942.52;;;0.43;52.95
44441;BME280;30146;52.268;20.944;2023-04-05T00:17:36;100942.11;;;0.42;52.84
44441;BME280;30146;52.268;20.944;2023-04-05T00:20:10;100940.35;;;0.39;53.02
44441;BME280;30146;52.268;20.944;2023-04-05T00:22:42;100937.92;;;0.38;52.91
44441;BME280;30146;52.268;20.944;2023-04-05T00:25:13;100931.45;;;0.36;53.03
44441;BME280;30146;52.268;20.944;2023-04-05T00:27:45;100925.39;;;0.35;53.12
44441;BME280;30146;52.268;20.944;2023-04-05T00:30:16;100929.10;;;0.36;53.17
44441;BME280;30146;52.268;20.944;2023-04-05T00:32:49;100925.45;;;0.37;53.38
44441;BME280;30146;52.268;20.944;2023-04-05T00:35:20;100923.50;;;0.38;53.36
44441;BME280;30146;52.268;20.944;2023-04-05T00:37:51;100923.25;;;0.36;53.10
44441;BME280;30146;52.268;20.944;2023-04-05T00:40:23;100924.67;;;0.34;53.00
44441;BME280;30146;52.268;20.944;2023-04-05T00:42:54;100917.48;;;0.31;52.93
44441;BME280;30146;52.268;20.944;2023-04-05T00:45:25;100919.05;;;0.29;53.25
44441;BME280;30146;52.268;20.944;2023-04-05T00:47:56;100917.89;;;0.25;53.14
44441;BME280;30146;52.268;20.944;2023-04-05T00:50:27;100918.57;;;0.22;53.21
44441;BME280;30146;52.268;20.944;2023-04-05T00:52:59;100918.95;;;0.18;53.19
44441;BME280;30146;52.268;20.944;2023-04-05T00:55:30;100917.60;;;0.14;53.26
44441;BME280;30146;52.268;20.944;2023-04-05T00:58:02;100918.32;;;0.11;53.46
44441;BME280;30146;52.268;20.944;2023-04-05T01:00:33;100912.94;;;0.07;53.42
44441;BME280;30146;52.268;20.944;2023-04-05T01:03:06;100910.34;;;0.05;53.64
44441;BME280;30146;52.268;20.944;2023-04-05T01:05:41;100909.42;;;0.04;53.66
44441;BME280;30146;52.268;20.944;2023-04-05T01:08:17;100906.55;;;0.03;53.84
44441;BME280;30146;52.268;20.944;2023-04-05T01:10:58;100907.71;;;0.03;54.12
44441;BME280;30146;52.268;20.944;2023-04-05T01:13:31;100904.70;;;0.03;54.16
44441;BME280;30146;52.268;20.944;2023-04-05T01:16:02;100900.69;;;0.04;54.45
44441;BME280;30146;52.268;20.944;2023-04-05T01:18:34;100895.32;;;0.04;54.53
44441;BME280;30146;52.268;20.944;2023-04-05T01:24:11;100893.90;;;0.06;54.77
44441;BME280;30146;52.268;20.944;2023-04-05T01:26:58;100895.13;;;0.07;54.90
44441;BME280;30146;52.268;20.944;2023-04-05T01:29:49;100893.16;;;0.09;55.02
44441;BME280;30146;52.268;20.944;2023-04-05T01:32:26;100891.80;;;0.08;54.94
44441;BME280;30146;52.268;20.944;2023-04-05T01:35:04;100895.63;;;0.07;55.21
44441;BME280;30146;52.268;20.944;2023-04-05T01:37:40;100893.61;;;0.07;55.14
44441;BME280;30146;52.268;20.944;2023-04-05T01:40:14;100889.70;;;0.06;55.03
44441;BME280;30146;52.268;20.944;2023-04-05T01:43:27;100891.25;;;0.03;54.77
44441;BME280;30146;52.268;20.944;2023-04-05T01:46:02;100896.73;;;0.01;54.94
44441;BME280;30146;52.268;20.944;2023-04-05T01:48:33;100895.77;;;-0.01;54.91
44441;BME280;30146;52.268;20.944;2023-04-05T01:51:05;100899.73;;;-0.03;55.04
44441;BME280;30146;52.268;20.944;2023-04-05T01:53:42;100903.05;;;-0.04;54.90
44441;BME280;30146;52.268;20.944;2023-04-05T01:56:16;100899.41;;;-0.07;55.02
44441;BME280;30146;52.268;20.944;2023-04-05T01:58:46;100900.50;;;-0.09;54.91
44441;BME280;30146;52.268;20.944;2023-04-05T02:01:17;100899.27;;;-0.10;55.22
44441;BME280;30146;52.268;20.944;2023-04-05T02:03:50;100899.77;;;-0.14;54.99
44441;BME280;30146;52.268;20.944;2023-04-05T02:06:21;100899.98;;;-0.17;54.85
44441;BME280;30146;52.268;20.944;2023-04-05T02:08:52;100900.27;;;-0.22;55.12
44441;BME280;30146;52.268;20.944;2023-04-05T02:11:23;100901.51;;;-0.25;54.97
44441;BME280;30146;52.268;20.944;2023-04-05T02:13:59;100896.86;;;-0.27;55.28
44441;BME280;30146;52.268;20.944;2023-04-05T02:16:31;100902.17;;;-0.29;55.17
44441;BME280;30146;52.268;20.944;2023-04-05T02:19:02;100904.07;;;-0.31;55.37
44441;BME280;30146;52.268;20.944;2023-04-05T02:21:34;100906.61;;;-0.35;55.10
44441;BME280;30146;52.268;20.944;2023-04-05T02:24:06;100906.81;;;-0.38;55.44
44441;BME280;30146;52.268;20.944;2023-04-05T02:26:40;100907.52;;;-0.41;55.38
44441;BME280;30146;52.268;20.944;2023-04-05T02:29:11;100907.74;;;-0.44;55.25
44441;BME280;30146;52.268;20.944;2023-04-05T02:31:41;100906.27;;;-0.47;55.53
44441;BME280;30146;52.268;20.944;2023-04-05T02:34:14;100907.70;;;-0.48;55.72
44441;BME280;30146;52.268;20.944;2023-04-05T02:36:47;100903.96;;;-0.49;55.81
44441;BME280;30146;52.268;20.944;2023-04-05T02:39:19;100901.95;;;-0.49;55.68
44441;BME280;30146;52.268;20.944;2023-04-05T02:41:51;100899.55;;;-0.50;55.60
44441;BME280;30146;52.268;20.944;2023-04-05T02:44:22;100900.55;;;-0.50;55.65
44441;BME280;30146;52.268;20.944;2023-04-05T02:46:55;100899.52;;;-0.50;55.88
44441;BME280;30146;52.268;20.944;2023-04-05T02:49:31;100902.51;;;-0.51;55.64
44441;BME280;30146;52.268;20.944;2023-04-05T02:52:03;100901.79;;;-0.53;55.68
44441;BME280;30146;52.268;20.944;2023-04-05T02:54:35;100900.39;;;-0.54;55.62
44441;BME280;30146;52.268;20.944;2023-04-05T02:57:08;100897.99;;;-0.55;55.82
44441;BME280;30146;52.268;20.944;2023-04-05T02:59:46;100896.92;;;-0.56;55.96
44441;BME280;30146;52.268;20.944;2023-04-05T03:02:17;100897.13;;;-0.56;55.92
44441;BME280;30146;52.268;20.944;2023-04-05T03:04:48;100897.45;;;-0.56;55.93
44441;BME280;30146;52.268;20.944;2023-04-05T03:07:25;100896.10;;;-0.56;56.32
44441;BME280;30146;52.268;20.944;2023-04-05T03:13:23;100896.11;;;-0.56;56.06
44441;BME280;30146;52.268;20.944;2023-04-05T03:15:55;100898.29;;;-0.56;56.30
44441;BME280;30146;52.268;20.944;2023-04-05T03:18:29;100898.48;;;-0.56;56.47
44441;BME280;30146;52.268;20.944;2023-04-05T03:21:11;100900.52;;;-0.55;56.27
44441;BME280;30146;52.268;20.944;2023-04-05T03:23:48;100897.02;;;-0.55;56.03
44441;BME280;30146;52.268;20.944;2023-04-05T03:26:21;100899.37;;;-0.55;56.17
44441;BME280;30146;52.268;20.944;2023-04-05T03:28:54;100899.52;;;-0.55;56.18
44441;BME280;30146;52.268;20.944;2023-04-05T03:31:30;100898.95;;;-0.56;56.10
44441;BME280;30146;52.268;20.944;2023-04-05T03:34:03;100899.02;;;-0.54;56.33
44441;BME280;30146;52.268;20.944;2023-04-05T03:36:40;100896.22;;;-0.53;56.23
44441;BME280;30146;52.268;20.944;2023-04-05T03:39:34;100894.80;;;-0.51;56.33
44441;BME280;30146;52.268;20.944;2023-04-05T03:42:05;100896.97;;;-0.48;56.56
44441;BME280;30146;52.268;20.944;2023-04-05T03:44:36;100899.33;;;-0.44;56.52
44441;BME280;30146;52.268;20.944;2023-04-05T03:47:06;100899.10;;;-0.42;56.56
44441;BME280;30146;52.268;20.944;2023-04-05T03:49:39;100902.48;;;-0.37;56.53
44441;BME280;30146;52.268;20.944;2023-04-05T03:52:10;100898.27;;;-0.34;56.59
44441;BME280;30146;52.268;20.944;2023-04-05T03:54:45;100902.30;;;-0.30;56.67
44441;BME280;30146;52.268;20.944;2023-04-05T03:57:21;100901.99;;;-0.25;56.76
44441;BME280;30146;52.268;20.944;2023-04-05T03:59:55;100894.14;;;-0.21;56.85
44441;BME280;30146;52.268;20.944;2023-04-05T04:02:28;100892.31;;;-0.16;56.73
44441;BME280;30146;52.268;20.944;2023-04-05T04:04:59;100894.02;;;-0.11;56.89
44441;BME280;30146;52.268;20.944;2023-04-05T04:07:37;100898.95;;;-0.06;56.95
44441;BME280;30146;52.268;20.944;2023-04-05T04:10:16;100897.01;;;0.00;56.99
44441;BME280;30146;52.268;20.944;2023-04-05T04:12:53;100897.33;;;0.08;57.09
44441;BME280;30146;52.268;20.944;2023-04-05T04:15:29;100897.02;;;0.16;56.97
44441;BME280;30146;52.268;20.944;2023-04-05T04:18:24;100894.77;;;0.23;56.91
44441;BME280;30146;52.268;20.944;2023-04-05T04:21:28;100900.10;;;0.30;56.97
44441;BME280;30146;52.268;20.944;2023-04-05T04:24:20;100903.37;;;0.36;57.02
44441;BME280;30146;52.268;20.944;2023-04-05T04:27:11;100906.71;;;0.44;57.06
44441;BME280;30146;52.268;20.944;2023-04-05T04:29:47;100910.91;;;0.48;56.94
44441;BME280;30146;52.268;20.944;2023-04-05T04:32:37;100911.63;;;0.53;57.07
44441;BME280;30146;52.268;20.944;2023-04-05T04:35:40;100910.17;;;0.58;57.07
44441;BME280;30146;52.268;20.944;2023-04-05T04:38:41;100909.54;;;0.64;57.18
44441;BME280;30146;52.268;20.944;2023-04-05T04:41:44;100908.48;;;0.72;57.30
44441;BME280;30146;52.268;20.944;2023-04-05T04:44:42;100907.64;;;0.79;57.20
44441;BME280;30146;52.268;20.944;2023-04-05T04:47:23;100904.18;;;0.86;57.34
44441;BME280;30146;52.268;20.944;2023-04-05T04:50:10;100903.27;;;0.93;57.32
44441;BME280;30146;52.268;20.944;2023-04-05T04:52:59;100901.11;;;0.98;57.29
44441;BME280;30146;52.268;20.944;2023-04-05T04:55:30;100898.66;;;1.05;57.22
44441;BME280;30146;52.268;20.944;2023-04-05T04:58:04;100898.35;;;1.10;57.16
44441;BME280;30146;52.268;20.944;2023-04-05T05:00:39;100897.13;;;1.13;56.97
44441;BME280;30146;52.268;20.944;2023-04-05T05:03:11;100900.52;;;1.18;57.08
44441;BME280;30146;52.268;20.944;2023-04-05T05:05:47;100903.33;;;1.21;56.92
44441;BME280;30146;52.268;20.944;2023-04-05T05:08:46;100901.72;;;1.23;56.89
44441;BME280;30146;52.268;20.944;2023-04-05T05:11:19;100907.20;;;1.26;56.78
44441;BME280;30146;52.268;20.944;2023-04-05T05:13:50;100907.30;;;1.28;56.87
44441;BME280;30146;52.268;20.944;2023-04-05T05:16:26;100908.92;;;1.31;56.93
44441;BME280;30146;52.268;20.944;2023-04-05T05:18:57;100912.80;;;1.36;57.13
44441;BME280;30146;52.268;20.944;2023-04-05T05:21:50;100913.34;;;1.42;57.11
44441;BME280;30146;52.268;20.944;2023-04-05T05:24:27;100911.20;;;1.47;57.15
44441;BME280;30146;52.268;20.944;2023-04-05T05:26:58;100914.05;;;1.51;57.17
44441;BME280;30146;52.268;20.944;2023-04-05T05:29:29;100914.21;;;1.56;56.94
44441;BME280;30146;52.268;20.944;2023-04-05T05:32:00;100918.45;;;1.61;57.12
44441;BME280;30146;52.268;20.944;2023-04-05T05:34:35;100918.89;;;1.64;56.91
44441;BME280;30146;52.268;20.944;2023-04-05T05:37:06;100919.01;;;1.68;57.09
44441;BME280;30146;52.268;20.944;2023-04-05T05:39:38;100919.14;;;1.71;57.17
44441;BME280;30146;52.268;20.944;2023-04-05T05:42:12;100923.23;;;1.78;57.22
44441;BME280;30146;52.268;20.944;2023-04-05T05:44:47;100925.10;;;1.83;56.97
44441;BME280;30146;52.268;20.944;2023-04-05T05:47:19;100924.33;;;1.84;56.98
44441;BME280;30146;52.268;20.944;2023-04-05T05:49:50;100927.29;;;1.87;56.91
44441;BME280;30146;52.268;20.944;2023-04-05T05:52:21;100927.04;;;1.90;56.84
44441;BME280;30146;52.268;20.944;2023-04-05T05:54:55;100926.92;;;1.91;56.84
44441;BME280;30146;52.268;20.944;2023-04-05T05:57:26;100929.67;;;1.93;56.61
44441;BME280;30146;52.268;20.944;2023-04-05T05:59:57;100931.27;;;1.95;56.62
44441;BME280;30146;52.268;20.944;2023-04-05T06:02:28;100936.65;;;2.00;56.93
44441;BME280;30146;52.268;20.944;2023-04-05T06:05:04;100936.15;;;2.05;57.10
44441;BME280;30146;52.268;20.944;2023-04-05T06:07:37;100936.20;;;2.11;56.85
44441;BME280;30146;52.268;20.944;2023-04-05T06:10:11;100934.98;;;2.15;56.89
44441;BME280;30146;52.268;20.944;2023-04-05T06:12:43;100937.00;;;2.20;56.70
44441;BME280;30146;52.268;20.944;2023-04-05T06:15:17;100941.16;;;2.23;56.61
44441;BME280;30146;52.268;20.944;2023-04-05T06:17:48;100941.40;;;2.25;56.57
44441;BME280;30146;52.268;20.944;2023-04-05T06:20:19;100940.33;;;2.28;56.69
44441;BME280;30146;52.268;20.944;2023-04-05T06:22:50;100939.67;;;2.29;56.61
44441;BME280;30146;52.268;20.944;2023-04-05T06:25:21;100941.27;;;2.26;56.15
44441;BME280;30146;52.268;20.944;2023-04-05T06:27:52;100942.25;;;2.20;56.20
44441;BME280;30146;52.268;20.944;2023-04-05T06:30:24;100941.87;;;2.19;56.09
44441;BME280;30146;52.268;20.944;2023-04-05T06:32:58;100944.80;;;2.21;56.45
44441;BME280;30146;52.268;20.944;2023-04-05T06:35:29;100949.48;;;2.24;56.61
44441;BME280;30146;52.268;20.944;2023-04-05T06:38:00;100947.27;;;2.28;56.89
44441;BME280;30146;52.268;20.944;2023-04-05T06:40:31;100946.86;;;2.32;56.60
44441;BME280;30146;52.268;20.944;2023-04-05T06:43:02;100950.63;;;2.34;56.55
44441;BME280;30146;52.268;20.944;2023-04-05T06:45:35;100957.40;;;2.34;56.39
44441;BME280;30146;52.268;20.944;2023-04-05T06:48:06;100959.27;;;2.35;56.17
44441;BME280;30146;52.268;20.944;2023-04-05T06:50:37;100954.66;;;2.33;56.19
44441;BME280;30146;52.268;20.944;2023-04-05T06:53:09;100955.55;;;2.34;56.02
44441;BME280;30146;52.268;20.944;2023-04-05T06:55:47;100961.48;;;2.36;56.08
44441;BME280;30146;52.268;20.944;2023-04-05T06:58:42;100958.45;;;2.36;55.88
44441;BME280;30146;52.268;20.944;2023-04-05T07:01:15;100958.75;;;2.34;55.93
44441;BME280;30146;52.268;20.944;2023-04-05T07:03:47;100957.27;;;2.35;55.89
44441;BME280;30146;52.268;20.944;2023-04-05T07:06:18;100957.95;;;2.36;55.82
44441;BME280;30146;52.268;20.944;2023-04-05T07:08:50;100960.13;;;2.35;55.77
44441;BME280;30146;52.268;20.944;2023-04-05T07:11:24;100958.23;;;2.34;55.61
44441;BME280;30146;52.268;20.944;2023-04-05T07:13:55;100963.85;;;2.35;55.93
44441;BME280;30146;52.268;20.944;2023-04-05T07:16:27;100964.46;;;2.38;55.89
44441;BME280;30146;52.268;20.944;2023-04-05T07:18:58;100965.54;;;2.40;55.72
44441;BME280;30146;52.268;20.944;2023-04-05T07:21:29;100965.35;;;2.45;56.00
44441;BME280;30146;52.268;20.944;2023-04-05T07:24:00;100964.64;;;2.48;55.81
44441;BME280;30146;52.268;20.944;2023-04-05T07:26:33;100965.94;;;2.53;55.95
44441;BME280;30146;52.268;20.944;2023-04-05T07:29:29;100965.15;;;2.54;55.41
44441;BME280;30146;52.268;20.944;2023-04-05T07:32:00;100968.27;;;2.57;55.71
44441;BME280;30146;52.268;20.944;2023-04-05T07:34:31;100968.05;;;2.60;56.13
44441;BME280;30146;52.268;20.944;2023-04-05T07:37:03;100965.95;;;2.63;55.97
44441;BME280;30146;52.268;20.944;2023-04-05T07:39:36;100967.63;;;2.67;55.87
44441;BME280;30146;52.268;20.944;2023-04-05T07:42:07;100972.45;;;2.71;55.93
44441;BME280;30146;52.268;20.944;2023-04-05T07:44:38;100973.76;;;2.75;55.70
44441;BME280;30146;52.268;20.944;2023-04-05T07:47:10;100976.14;;;2.76;55.85
44441;BME280;30146;52.268;20.944;2023-04-05T07:49:41;100976.86;;;2.77;55.63
44441;BME280;30146;52.268;20.944;2023-04-05T07:52:12;100972.17;;;2.78;55.60
44441;BME280;30146;52.268;20.944;2023-04-05T07:54:43;100972.77;;;2.81;55.35
44441;BME280;30146;52.268;20.944;2023-04-05T07:57:17;100970.65;;;2.83;55.24
44441;BME280;30146;52.268;20.944;2023-04-05T07:59:49;100974.16;;;2.87;55.60
44441;BME280;30146;52.268;20.944;2023-04-05T08:02:21;100970.73;;;2.91;55.41
44441;BME280;30146;52.268;20.944;2023-04-05T08:04:52;100974.05;;;2.95;55.15
44441;BME280;30146;52.268;20.944;2023-04-05T08:07:24;100971.04;;;3.01;55.36
44441;BME280;30146;52.268;20.944;2023-04-05T08:09:55;100975.33;;;3.08;55.69
44441;BME280;30146;52.268;20.944;2023-04-05T08:12:30;100972.36;;;3.16;55.38
44441;BME280;30146;52.268;20.944;2023-04-05T08:15:01;100975.61;;;3.23;55.46
44441;BME280;30146;52.268;20.944;2023-04-05T08:17:31;100973.81;;;3.30;55.20
44441;BME280;30146;52.268;20.944;2023-04-05T08:20:03;100972.03;;;3.39;55.20
44441;BME280;30146;52.268;20.944;2023-04-05T08:22:34;100970.71;;;3.45;55.15
44441;BME280;30146;52.268;20.944;2023-04-05T08:25:07;100972.69;;;3.50;54.77
44441;BME280;30146;52.268;20.944;2023-04-05T08:27:38;100970.41;;;3.53;54.66
44441;BME280;30146;52.268;20.944;2023-04-05T08:30:10;100972.30;;;3.54;54.69
44441;BME280;30146;52.268;20.944;2023-04-05T08:32:49;100973.10;;;3.58;54.56
44441;BME280;30146;52.268;20.944;2023-04-05T08:38:48;100974.26;;;3.68;54.56
44441;BME280;30146;52.268;20.944;2023-04-05T08:41:23;100976.96;;;3.75;54.69
44441;BME280;30146;52.268;20.944;2023-04-05T08:43:55;100974.60;;;3.81;54.62
44441;BME280;30146;52.268;20.944;2023-04-05T08:46:31;100976.73;;;3.91;54.48
44441;BME280;30146;52.268;20.944;2023-04-05T08:49:26;100974.61;;;3.99;54.39
44441;BME280;30146;52.268;20.944;2023-04-05T08:51:59;100967.52;;;4.13;54.51
44441;BME280;30146;52.268;20.944;2023-04-05T08:54:30;100968.16;;;4.24;53.87
44441;BME280;30146;52.268;20.944;2023-04-05T08:57:02;100969.49;;;4.36;53.82
44441;BME280;30146;52.268;20.944;2023-04-05T08:59:37;100969.30;;;4.48;53.51
44441;BME280;30146;52.268;20.944;2023-04-05T09:02:16;100966.73;;;4.61;53.09
44441;BME280;30146;52.268;20.944;2023-04-05T09:05:03;100968.63;;;4.76;53.30
44441;BME280;30146;52.268;20.944;2023-04-05T09:07:38;100966.69;;;4.87;52.80
44441;BME280;30146;52.268;20.944;2023-04-05T09:10:40;100967.75;;;4.96;52.67
44441;BME280;30146;52.268;20.944;2023-04-05T09:13:11;100964.05;;;5.05;52.25
44441;BME280;30146;52.268;20.944;2023-04-05T09:19:28;100968.34;;;5.14;51.37
44441;BME280;30146;52.268;20.944;2023-04-05T09:22:00;100967.88;;;5.17;50.61
44441;BME280;30146;52.268;20.944;2023-04-05T09:24:42;100967.29;;;5.20;50.49
44441;BME280;30146;52.268;20.944;2023-04-05T09:27:18;100966.89;;;5.25;50.02
44441;BME280;30146;52.268;20.944;2023-04-05T09:30:29;100971.11;;;5.32;49.87
44441;BME280;30146;52.268;20.944;2023-04-05T09:33:06;100975.27;;;5.36;49.82
44441;BME280;30146;52.268;20.944;2023-04-05T09:35:38;100973.02;;;5.34;49.33
44441;BME280;30146;52.268;20.944;2023-04-05T09:38:10;100974.58;;;5.21;48.84
44441;BME280;30146;52.268;20.944;2023-04-05T09:40:46;100976.50;;;5.09;48.75
44441;BME280;30146;52.268;20.944;2023-04-05T09:43:40;100975.12;;;5.00;48.84
44441;BME280;30146;52.268;20.944;2023-04-05T09:46:29;100973.02;;;4.97;49.15
44441;BME280;30146;52.268;20.944;2023-04-05T09:49:01;100968.70;;;4.94;48.70
44441;BME280;30146;52.268;20.944;2023-04-05T09:51:36;100967.25;;;4.97;49.11
44441;BME280;30146;52.268;20.944;2023-04-05T09:54:09;100969.20;;;5.09;49.29
44441;BME280;30146;52.268;20.944;2023-04-05T09:56:41;100967.96;;;5.36;49.77
44441;BME280;30146;52.268;20.944;2023-04-05T09:59:23;100969.16;;;5.77;49.94
44441;BME280;30146;52.268;20.944;2023-04-05T10:01:54;100966.16;;;6.13;49.52
44441;BME280;30146;52.268;20.944;2023-04-05T10:04:26;100965.08;;;6.47;49.34
44441;BME280;30146;52.268;20.944;2023-04-05T10:07:09;100965.36;;;6.86;49.10
44441;BME280;30146;52.268;20.944;2023-04-05T10:09:43;100962.00;;;7.10;48.26
44441;BME280;30146;52.268;20.944;2023-04-05T10:12:23;100961.33;;;7.23;47.72
44441;BME280;30146;52.268;20.944;2023-04-05T10:14:55;100963.81;;;7.30;47.15
44441;BME280;30146;52.268;20.944;2023-04-05T10:17:30;100959.15;;;7.25;46.83
44441;BME280;30146;52.268;20.944;2023-04-05T10:20:13;100962.89;;;7.25;46.57
44441;BME280;30146;52.268;20.944;2023-04-05T10:22:54;100963.52;;;7.22;46.46
44441;BME280;30146;52.268;20.944;2023-04-05T10:25:35;100956.76;;;7.24;46.46
44441;BME280;30146;52.268;20.944;2023-04-05T10:28:13;100952.84;;;7.24;46.07
44441;BME280;30146;52.268;20.944;2023-04-05T10:30:52;100949.20;;;7.19;45.39
44441;BME280;30146;52.268;20.944;2023-04-05T10:33:38;100950.98;;;7.11;45.12
44441;BME280;30146;52.268;20.944;2023-04-05T10:36:16;100949.84;;;7.04;45.14
44441;BME280;30146;52.268;20.944;2023-04-05T10:38:59;100946.21;;;7.00;45.18
44441;BME280;30146;52.268;20.944;2023-04-05T10:41:35;100946.73;;;7.00;44.91
44441;BME280;30146;52.268;20.944;2023-04-05T10:44:09;100948.42;;;7.00;44.92
44441;BME280;30146;52.268;20.944;2023-04-05T10:46:55;100944.06;;;7.04;44.82
44441;BME280;30146;52.268;20.944;2023-04-05T10:49:36;100940.19;;;7.06;44.77
44441;BME280;30146;52.268;20.944;2023-04-05T10:52:11;100934.65;;;7.11;44.39
44441;BME280;30146;52.268;20.944;2023-04-05T10:54:43;100937.14;;;7.20;43.99
44441;BME280;30146;52.268;20.944;2023-04-05T10:57:16;100934.10;;;7.33;43.95
44441;BME280;30146;52.268;20.944;2023-04-05T10:59:49;100933.98;;;7.52;43.98
44441;BME280;30146;52.268;20.944;2023-04-05T11:02:22;100931.83;;;7.69;44.03
44441;BME280;30146;52.268;20.944;2023-04-05T11:04:55;100930.93;;;7.81;43.64
44441;BME280;30146;52.268;20.944;2023-04-05T11:07:26;100932.99;;;7.82;43.40
44441;BME280;30146;52.268;20.944;2023-04-05T11:10:17;100934.95;;;7.75;42.84
44441;BME280;30146;52.268;20.944;2023-04-05T11:13:17;100938.59;;;7.65;42.67
44441;BME280;30146;52.268;20.944;2023-04-05T11:16:08;100931.63;;;7.53;42.68
44441;BME280;30146;52.268;20.944;2023-04-05T11:18:44;100931.56;;;7.47;42.75
44441;BME280;30146;52.268;20.944;2023-04-05T11:21:23;100932.55;;;7.45;42.73
44441;BME280;30146;52.268;20.944;2023-04-05T11:24:04;100931.90;;;7.47;42.86
44441;BME280;30146;52.268;20.944;2023-04-05T11:26:53;100930.09;;;7.52;42.81
44441;BME280;30146;52.268;20.944;2023-04-05T11:29:45;100931.55;;;7.61;42.98
44441;BME280;30146;52.268;20.944;2023-04-05T11:32:36;100930.61;;;7.67;42.65
44441;BME280;30146;52.268;20.944;2023-04-05T11:35:14;100933.34;;;7.68;42.41
44441;BME280;30146;52.268;20.944;2023-04-05T11:38:01;100930.61;;;7.68;42.31
44441;BME280;30146;52.268;20.944;2023-04-05T11:40:39;100932.83;;;7.67;42.22
44441;BME280;30146;52.268;20.944;2023-04-05T11:43:12;100936.52;;;7.63;41.88
44441;BME280;30146;52.268;20.944;2023-04-05T11:45:43;100938.33;;;7.59;41.94
44441;BME280;30146;52.268;20.944;2023-04-05T11:48:18;100934.66;;;7.51;41.95
44441;BME280;30146;52.268;20.944;2023-04-05T11:50:54;100932.51;;;7.42;41.79
44441;BME280;30146;52.268;20.944;2023-04-05T11:53:26;100935.80;;;7.33;41.81
44441;BME280;30146;52.268;20.944;2023-04-05T11:56:07;100937.55;;;7.24;41.79
44441;BME280;30146;52.268;20.944;2023-04-05T11:58:41;100934.23;;;7.19;41.86
44441;BME280;30146;52.268;20.944;2023-04-05T12:01:12;100936.02;;;7.11;41.77
44441;BME280;30146;52.268;20.944;2023-04-05T12:03:43;100933.89;;;7.06;41.88
44441;BME280;30146;52.268;20.944;2023-04-05T12:06:22;100937.20;;;7.00;41.74
44441;BME280;30146;52.268;20.944;2023-04-05T12:08:53;100940.89;;;6.97;41.67
44441;BME280;30146;52.268;20.944;2023-04-05T12:11:26;100937.56;;;6.90;41.46
44441;BME280;30146;52.268;20.944;2023-04-05T12:13:59;100934.83;;;6.78;41.34
44441;BME280;30146;52.268;20.944;2023-04-05T12:16:31;100936.76;;;6.60;41.12
44441;BME280;30146;52.268;20.944;2023-04-05T12:19:02;100934.27;;;6.43;41.15
44441;BME280;30146;52.268;20.944;2023-04-05T12:21:33;100936.76;;;6.30;41.24
44441;BME280;30146;52.268;20.944;2023-04-05T12:24:05;100935.09;;;6.22;41.47
44441;BME280;30146;52.268;20.944;2023-04-05T12:26:36;100929.39;;;6.17;41.57
44441;BME280;30146;52.268;20.944;2023-04-05T12:29:11;100927.85;;;6.15;41.79
44441;BME280;30146;52.268;20.944;2023-04-05T12:31:43;100929.95;;;6.20;41.94
44441;BME280;30146;52.268;20.944;2023-04-05T12:34:15;100927.69;;;6.26;42.06
44441;BME280;30146;52.268;20.944;2023-04-05T12:36:55;100925.80;;;6.34;42.15
44441;BME280;30146;52.268;20.944;2023-04-05T12:39:29;100927.80;;;6.43;42.23
44441;BME280;30146;52.268;20.944;2023-04-05T12:42:02;100918.27;;;6.51;42.02
44441;BME280;30146;52.268;20.944;2023-04-05T12:44:33;100921.64;;;6.60;42.00
44441;BME280;30146;52.268;20.944;2023-04-05T12:47:07;100922.05;;;6.65;41.90
44441;BME280;30146;52.268;20.944;2023-04-05T12:49:39;100919.44;;;6.71;41.98
44441;BME280;30146;52.268;20.944;2023-04-05T12:52:10;100916.19;;;6.81;42.03
44441;BME280;30146;52.268;20.944;2023-04-05T12:54:55;100912.37;;;6.87;41.60
44441;BME280;30146;52.268;20.944;2023-04-05T12:57:34;100911.09;;;6.91;41.75
44441;BME280;30146;52.268;20.944;2023-04-05T13:00:07;100910.67;;;6.99;41.72
44441;BME280;30146;52.268;20.944;2023-04-05T13:02:54;100913.52;;;7.08;41.66
44441;BME280;30146;52.268;20.944;2023-04-05T13:05:27;100907.31;;;7.14;41.60
44441;BME280;30146;52.268;20.944;2023-04-05T13:07:58;100908.90;;;7.19;41.51
44441;BME280;30146;52.268;20.944;2023-04-05T13:10:29;100908.64;;;7.24;41.52
44441;BME280;30146;52.268;20.944;2023-04-05T13:13:00;100911.38;;;7.25;41.01
44441;BME280;30146;52.268;20.944;2023-04-05T13:15:30;100912.84;;;7.20;40.56
44441;BME280;30146;52.268;20.944;2023-04-05T13:18:03;100911.40;;;7.15;40.55
44441;BME280;30146;52.268;20.944;2023-04-05T13:20:34;100911.88;;;7.12;40.64
44441;BME280;30146;52.268;20.944;2023-04-05T13:23:05;100910.83;;;7.09;40.63
44441;BME280;30146;52.268;20.944;2023-04-05T13:25:42;100909.13;;;7.10;40.87
44441;BME280;30146;52.268;20.944;2023-04-05T13:28:14;100905.93;;;7.12;40.73
44441;BME280;30146;52.268;20.944;2023-04-05T13:30:45;100904.95;;;7.16;40.79
44441;BME280;30146;52.268;20.944;2023-04-05T13:33:25;100909.70;;;7.16;40.78
44441;BME280;30146;52.268;20.944;2023-04-05T13:35:59;100908.50;;;7.15;40.57
44441;BME280;30146;52.268;20.944;2023-04-05T13:38:30;100912.38;;;7.11;40.52
44441;BME280;30146;52.268;20.944;2023-04-05T13:41:01;100915.98;;;7.02;40.34
44441;BME280;30146;52.268;20.944;2023-04-05T13:43:35;100913.15;;;6.94;40.48
44441;BME280;30146;52.268;20.944;2023-04-05T13:46:07;100916.15;;;6.91;40.55